KMTJ/MTJ METAR and TAF weather

Enter ICAO airport designator
Station Type Date Time Source
KMTJ METAR 2022/11/30 16:53 UTC NOAA

KMTJ 301653Z AUTO 18004KT 10SM CLR M04/M14 A3021 RMK AO2 SLP261 T10391139


Station Type Date Time Source
KMTJ Decoded METAR 2022/11/30 16:53 UTC NOAA

MONTROSE REGIONAL AIRPORT, CO, United States (KMTJ) 38-30N 107-54W 1750M
Nov 30, 2022 - 11:53 AM EST / 2022.11.30 1653 UTC
Wind: from the S (180 degrees) at 5 MPH (4 KT):0
Visibility: 10 mile(s):0
Sky conditions: clear
Temperature: 25.0 F (-3.9 C)
Windchill: 19 F (-7 C):1
Dew Point: 7.0 F (-13.9 C)
Relative Humidity: 45%
Pressure (altimeter): 30.21 in. Hg (1023 hPa)
ob: KMTJ 301653Z AUTO 18004KT 10SM CLR M04/M14 A3021 RMK AO2 SLP261 T10391139
cycle: 17

Station Type Date Time Source
KMTJ TAF 2022/11/30 12:36 UTC NOAA

TAF KMTJ 301133Z 3012/0112 14006KT P6SM FEW200
FM301900 33007KT P6SM FEW200
FM302300 14008KT P6SM FEW250

Example: see airport list